createdAt,value
2017-08-08T20:14:52.102Z,27.5
2017-08-08T20:15:20.098Z,27.52
2017-08-08T20:15:48.258Z,27.52
2017-08-08T20:16:16.902Z,27.45
2017-08-08T20:16:45.008Z,27.43
2017-08-08T20:17:13.183Z,27.45
2017-08-08T20:17:41.394Z,27.44
2017-08-08T20:18:09.555Z,27.45
2017-08-08T20:18:37.778Z,27.35
2017-08-08T20:19:06.720Z,27.47
2017-08-08T20:19:34.904Z,27.4
2017-08-08T20:20:03.036Z,27.34
2017-08-08T20:20:31.051Z,27.3
2017-08-08T20:20:59.481Z,27.33
2017-08-08T20:21:27.376Z,27.33
2017-08-08T20:21:55.490Z,27.34
2017-08-08T20:22:23.587Z,27.25
2017-08-08T20:22:51.575Z,27.35
2017-08-08T20:23:19.678Z,27.28
2017-08-08T20:23:47.668Z,27.23
2017-08-08T20:24:15.751Z,27.29
2017-08-08T20:24:43.712Z,27.28
2017-08-08T20:25:11.904Z,27.26
2017-08-08T20:25:39.994Z,27.29
2017-08-08T20:26:07.992Z,27.16
2017-08-08T20:26:35.885Z,27.25
2017-08-08T20:27:03.979Z,27.18
2017-08-08T20:27:32.077Z,27.22
2017-08-08T20:28:00.104Z,27.19
2017-08-08T20:28:28.298Z,27.19
2017-08-08T20:28:56.444Z,27.13
2017-08-08T20:29:24.503Z,27.1
2017-08-08T20:29:52.589Z,27.03
2017-08-08T20:30:20.609Z,27.05
2017-08-08T20:30:48.972Z,27.04
2017-08-08T20:31:17.271Z,27.07
2017-08-08T20:31:45.242Z,27.03
2017-08-08T20:32:13.554Z,27.03
2017-08-08T20:32:41.627Z,27.01
2017-08-08T20:33:09.786Z,26.97
2017-08-08T20:33:38.261Z,26.89
2017-08-08T20:34:06.377Z,26.89
2017-08-08T20:34:35.225Z,26.91
2017-08-08T20:35:03.347Z,26.91
2017-08-08T20:35:31.423Z,26.92
2017-08-08T20:35:59.597Z,26.89
2017-08-08T20:36:27.759Z,26.86
2017-08-08T20:36:55.829Z,26.78
2017-08-08T20:37:24.018Z,26.82
2017-08-08T20:37:52.093Z,26.76
2017-08-08T20:38:20.096Z,26.79
2017-08-08T20:38:48.266Z,26.81
2017-08-08T20:39:16.347Z,26.71
2017-08-08T20:39:44.170Z,26.71
2017-08-08T20:40:12.379Z,26.59
2017-08-08T20:40:40.962Z,26.68
2017-08-08T20:41:09.127Z,26.59
2017-08-08T20:41:37.107Z,26.55
2017-08-08T20:42:05.618Z,26.55
2017-08-08T20:42:33.702Z,26.51
2017-08-08T20:43:01.696Z,26.53
2017-08-08T20:43:29.704Z,26.48
2017-08-08T20:43:57.795Z,26.42
2017-08-08T20:44:25.958Z,26.44
2017-08-08T20:44:54.012Z,26.48
2017-08-08T20:45:22.008Z,26.39
2017-08-08T20:45:50.081Z,26.37
2017-08-08T20:46:18.164Z,26.36
2017-08-08T20:46:46.409Z,26.42
2017-08-08T20:47:14.499Z,26.45
2017-08-08T20:47:42.580Z,26.37
2017-08-08T20:48:10.565Z,26.34
2017-08-08T20:48:38.649Z,26.27
2017-08-08T20:49:06.771Z,26.3
2017-08-08T20:49:34.926Z,26.24
2017-08-08T20:50:03.015Z,26.27
2017-08-08T20:50:31.111Z,26.27
2017-08-08T20:50:59.189Z,26.18
2017-08-08T20:51:27.272Z,26.16
2017-08-08T20:51:55.434Z,26.16
2017-08-08T20:52:23.519Z,26.04
2017-08-08T20:52:51.686Z,26.04
2017-08-08T20:53:19.772Z,26.04
2017-08-08T20:53:47.941Z,26.01
2017-08-08T20:54:16.109Z,26.06
2017-08-08T20:54:44.223Z,26.07
2017-08-08T20:55:12.221Z,25.98
2017-08-08T20:55:40.209Z,25.99
2017-08-08T20:56:08.394Z,26.04
2017-08-08T20:56:36.482Z,25.93
2017-08-08T20:57:04.644Z,25.92
2017-08-08T20:57:32.947Z,25.86
2017-08-08T20:58:00.970Z,25.89
2017-08-08T20:58:28.972Z,25.92
2017-08-08T20:58:57.095Z,25.89
2017-08-08T20:59:25.162Z,25.83
2017-08-08T20:59:53.158Z,25.88
2017-08-08T21:00:21.349Z,25.76
2017-08-08T21:00:49.324Z,25.78
2017-08-08T21:01:17.578Z,25.83
2017-08-08T21:01:45.542Z,25.8
2017-08-08T21:02:13.545Z,25.73
2017-08-08T21:02:41.668Z,25.83
2017-08-08T21:03:09.865Z,25.7
2017-08-08T21:03:37.831Z,25.62
2017-08-08T21:04:05.809Z,25.66
2017-08-08T21:04:33.802Z,25.63
2017-08-08T21:05:01.978Z,25.62
2017-08-08T21:05:30.059Z,25.51
2017-08-08T21:05:58.224Z,25.61
2017-08-08T21:06:26.309Z,25.49
2017-08-08T21:06:54.290Z,25.4
2017-08-08T21:07:22.405Z,25.44
2017-08-08T21:07:50.644Z,25.39
2017-08-08T21:08:18.727Z,25.39
2017-08-08T21:08:46.959Z,25.29
2017-08-08T21:09:15.044Z,25.34
2017-08-08T21:09:43.218Z,25.29
2017-08-08T21:10:11.025Z,25.31
2017-08-08T21:10:39.219Z,25.29
2017-08-08T21:11:07.207Z,25.25
2017-08-08T21:11:35.288Z,25.29
2017-08-08T21:12:03.275Z,25.33
2017-08-08T21:12:31.366Z,25.21
2017-08-08T21:12:59.674Z,25.14
2017-08-08T21:13:27.731Z,25.22
2017-08-08T21:13:55.775Z,25.11
2017-08-08T21:14:23.958Z,25.14
2017-08-08T21:14:52.283Z,25.21
2017-08-08T21:15:20.269Z,25.14
2017-08-08T21:15:48.348Z,25.21
2017-08-08T21:16:16.700Z,25.12
2017-08-08T21:16:44.772Z,25.14
2017-08-08T21:17:27.501Z,25.12
2017-08-08T21:17:55.471Z,25.18
2017-08-08T21:18:23.693Z,25.18
2017-08-08T21:18:51.854Z,25.26
2017-08-08T21:19:20.076Z,25.22
2017-08-08T21:19:48.154Z,25.26
2017-08-08T21:20:16.322Z,25.19
2017-08-08T21:20:44.404Z,25.25
2017-08-08T21:21:12.579Z,25.15
2017-08-08T21:21:40.585Z,25.31
2017-08-08T21:22:08.553Z,25.19
2017-08-08T21:22:36.541Z,25.24
2017-08-08T21:23:04.700Z,25.18
2017-08-08T21:23:32.846Z,25.18
2017-08-08T21:24:01.007Z,25.24
2017-08-08T21:24:29.089Z,25.16
2017-08-08T21:24:57.348Z,25.14
2017-08-08T21:25:25.559Z,25.15
2017-08-08T21:25:53.720Z,25.21
2017-08-08T21:26:21.889Z,25.14
2017-08-08T21:26:50.116Z,25.21
2017-08-08T21:27:18.220Z,25.15
2017-08-08T21:27:46.308Z,25.14
2017-08-08T21:28:14.372Z,25.12
2017-08-08T21:28:42.481Z,25.15
2017-08-08T21:29:10.637Z,25.21
2017-08-08T21:29:38.624Z,25.22
2017-08-08T21:30:06.609Z,25.16
2017-08-08T21:30:34.704Z,25.18
2017-08-08T21:31:02.765Z,25.15
2017-08-08T21:31:30.744Z,25.12
2017-08-08T21:31:58.720Z,25.22
2017-08-08T21:32:26.791Z,25.15
2017-08-08T21:32:54.878Z,25.12
2017-08-08T21:33:22.858Z,25.14
2017-08-08T21:33:51.041Z,25.11
2017-08-08T21:34:19.201Z,25.12
2017-08-08T21:34:47.297Z,25.04
2017-08-08T21:35:15.442Z,25.12
2017-08-08T21:35:43.554Z,25.06
2017-08-08T21:36:11.692Z,24.97
2017-08-08T21:36:39.853Z,25.01
2017-08-08T21:37:07.936Z,24.89
2017-08-08T21:37:36.002Z,24.92
2017-08-08T21:38:04.160Z,24.97
2017-08-08T21:38:32.240Z,24.88
2017-08-08T21:39:00.335Z,24.88
2017-08-08T21:39:28.411Z,24.74
2017-08-08T21:39:56.513Z,24.82
2017-08-08T21:40:24.422Z,24.81
2017-08-08T21:40:52.514Z,24.88
2017-08-08T21:41:20.598Z,24.81
2017-08-08T21:41:48.799Z,24.74
2017-08-08T21:42:16.772Z,24.84
2017-08-08T21:42:44.766Z,24.78
2017-08-08T21:43:12.820Z,24.74
2017-08-08T21:43:40.903Z,24.74
2017-08-08T21:44:09.086Z,24.66
2017-08-08T21:44:37.172Z,24.65
2017-08-08T21:45:05.263Z,24.62
2017-08-08T21:45:33.328Z,24.62
2017-08-08T21:46:01.424Z,24.56
2017-08-08T21:46:29.599Z,24.62
2017-08-08T21:46:57.582Z,24.59
2017-08-08T21:47:25.784Z,24.53
2017-08-08T21:47:53.962Z,24.56
2017-08-08T21:48:22.147Z,24.5
2017-08-08T21:48:50.337Z,24.5
2017-08-08T21:49:18.490Z,24.43
2017-08-08T21:49:46.739Z,24.44
2017-08-08T21:50:14.895Z,24.41
2017-08-08T21:50:43.095Z,24.34
2017-08-08T21:51:11.243Z,24.37
2017-08-08T21:51:39.230Z,24.28
2017-08-08T21:52:07.310Z,24.22
2017-08-08T21:52:35.276Z,24.24
2017-08-08T21:53:03.448Z,24.19
2017-08-08T21:53:31.501Z,24.14
2017-08-08T21:53:59.577Z,24.06
2017-08-08T21:54:27.559Z,24.03
2017-08-08T21:54:55.535Z,24.03
2017-08-08T21:55:23.532Z,24.04
2017-08-08T21:55:51.699Z,24.09
2017-08-08T21:56:19.893Z,23.94
2017-08-08T21:56:48.083Z,23.95
2017-08-08T21:57:16.083Z,23.94
2017-08-08T21:57:44.082Z,23.82
2017-08-08T21:58:12.162Z,23.85
2017-08-08T21:58:40.048Z,23.85
2017-08-08T21:59:08.112Z,23.79
2017-08-08T21:59:36.116Z,23.85
2017-08-08T22:00:04.186Z,23.76
2017-08-08T22:00:32.345Z,23.81
2017-08-08T22:01:00.429Z,23.77
2017-08-08T22:01:28.526Z,23.73
2017-08-08T22:01:56.431Z,23.66
2017-08-08T22:02:24.600Z,23.67
2017-08-08T22:02:52.612Z,23.66
2017-08-08T22:03:20.694Z,23.59
2017-08-08T22:03:48.691Z,23.59
2017-08-08T22:04:16.688Z,23.55
2017-08-08T22:04:44.767Z,23.45
2017-08-08T22:05:12.932Z,23.4
2017-08-08T22:05:40.900Z,23.33
2017-08-08T22:06:09.004Z,23.44
2017-08-08T22:06:37.165Z,23.36
2017-08-08T22:07:05.269Z,23.4
2017-08-08T22:07:33.428Z,23.34
2017-08-08T22:08:01.390Z,23.25
2017-08-08T22:08:29.475Z,23.28
2017-08-08T22:08:57.548Z,23.23
2017-08-08T22:09:25.608Z,23.25
2017-08-08T22:09:53.792Z,23.28
2017-08-08T22:10:21.672Z,23.2
2017-08-08T22:10:49.669Z,23.21
2017-08-08T22:11:17.873Z,23.21
2017-08-08T22:11:45.807Z,23.04
2017-08-08T22:12:14.090Z,23.08
2017-08-08T22:12:43.300Z,23.16
2017-08-08T22:13:11.300Z,23.14
2017-08-08T22:13:39.379Z,23.11
2017-08-08T22:14:07.339Z,22.99
2017-08-08T22:14:35.405Z,23.02
2017-08-08T22:15:03.571Z,23.02
2017-08-08T22:15:32.248Z,22.95
2017-08-08T22:16:57.341Z,22.95
2017-08-08T22:17:26.310Z,22.95
2017-08-08T22:17:54.334Z,22.84
2017-08-08T22:18:22.486Z,22.83
2017-08-08T22:18:50.468Z,22.89
2017-08-08T22:19:18.550Z,22.84
2017-08-08T22:19:46.642Z,22.88
2017-08-08T22:20:14.710Z,22.83
2017-08-08T22:20:42.841Z,22.76
2017-08-08T22:21:11.809Z,22.81
2017-08-08T22:21:39.971Z,22.7
2017-08-08T22:22:22.441Z,22.74
2017-08-08T22:22:50.656Z,22.76
2017-08-08T22:23:18.732Z,22.71
2017-08-08T22:23:46.903Z,22.78
2017-08-08T22:24:15.103Z,22.74
2017-08-08T22:24:43.168Z,22.74
2017-08-08T22:25:11.278Z,22.73
2017-08-08T22:25:39.338Z,22.8
2017-08-08T22:26:07.399Z,22.78
2017-08-08T22:26:35.489Z,22.77
2017-08-08T22:27:03.554Z,22.77
2017-08-08T22:27:31.791Z,22.74
2017-08-08T22:27:59.863Z,22.83
2017-08-08T22:28:27.931Z,22.86
2017-08-08T22:28:55.990Z,22.83
2017-08-08T22:29:24.154Z,22.83
2017-08-08T22:29:52.225Z,22.88
2017-08-08T22:30:20.320Z,22.77
2017-08-08T22:30:48.501Z,22.73
2017-08-08T22:31:16.660Z,22.76
2017-08-08T22:31:44.832Z,22.74
2017-08-08T22:32:13.013Z,22.73
2017-08-08T22:32:41.328Z,22.77
2017-08-08T22:33:09.415Z,22.76
2017-08-08T22:33:37.564Z,22.78
2017-08-08T22:34:05.621Z,22.81
2017-08-08T22:34:33.611Z,22.77
2017-08-08T22:35:01.778Z,22.77
2017-08-08T22:35:29.776Z,22.74
2017-08-08T22:35:57.825Z,22.74
2017-08-08T22:36:26.138Z,22.7
2017-08-08T22:36:54.209Z,22.78
2017-08-08T22:37:22.314Z,22.65
2017-08-08T22:37:50.456Z,22.68
2017-08-08T22:38:18.533Z,22.67
2017-08-08T22:38:47.522Z,22.63
2017-08-08T22:39:15.608Z,22.68
2017-08-08T22:39:43.768Z,22.68
2017-08-08T22:40:11.755Z,22.71
2017-08-08T22:40:39.993Z,22.67
2017-08-08T22:41:08.069Z,22.67
2017-08-08T22:41:36.530Z,22.65
2017-08-08T22:42:04.600Z,22.68
2017-08-08T22:42:32.735Z,22.68
2017-08-08T22:43:00.864Z,22.7
2017-08-08T22:43:28.850Z,22.63
2017-08-08T22:43:56.930Z,22.67
2017-08-08T22:44:25.010Z,22.67
2017-08-08T22:44:52.980Z,22.67
2017-08-08T22:45:21.064Z,22.63
2017-08-08T22:45:49.055Z,22.62
2017-08-08T22:46:17.823Z,22.63
2017-08-08T22:46:45.971Z,22.65
2017-08-08T22:47:14.057Z,22.55
2017-08-08T22:47:42.033Z,22.53
2017-08-08T22:48:09.943Z,22.53
2017-08-08T22:48:38.028Z,22.59
2017-08-08T22:49:06.222Z,22.59
2017-08-08T22:49:34.503Z,22.59
2017-08-08T22:50:02.667Z,22.53
2017-08-08T22:50:30.835Z,22.55
2017-08-08T22:50:58.984Z,22.53
2017-08-08T22:51:27.167Z,22.52
2017-08-08T22:51:55.229Z,22.58
2017-08-08T22:52:23.417Z,22.49
2017-08-08T22:52:53.506Z,22.36
2017-08-08T22:53:22.696Z,22.41
2017-08-08T22:53:53.483Z,22.4
2017-08-08T22:54:21.791Z,22.38
2017-08-08T22:54:49.804Z,22.36
2017-08-08T22:55:17.825Z,22.3
2017-08-08T22:55:45.903Z,22.34
2017-08-08T22:56:56.937Z,22.23
2017-08-08T22:57:24.991Z,22.3
2017-08-08T22:57:53.183Z,22.25
2017-08-08T22:58:21.255Z,22.3
2017-08-08T22:58:49.374Z,22.19
2017-08-08T22:59:17.455Z,22.26
2017-08-08T22:59:45.629Z,22.19
2017-08-08T23:00:13.700Z,22.18
2017-08-08T23:00:42.012Z,22.25
2017-08-08T23:01:10.181Z,22.16
2017-08-08T23:01:38.243Z,22.14
2017-08-08T23:02:06.345Z,22.12
2017-08-08T23:02:34.508Z,22.01
2017-08-08T23:03:02.499Z,22.06
2017-08-08T23:03:30.669Z,21.99
2017-08-08T23:03:58.764Z,22.07
2017-08-08T23:04:26.953Z,22.08
2017-08-08T23:04:55.339Z,22.06
2017-08-08T23:05:23.474Z,22.06
2017-08-08T23:05:51.557Z,22.07
2017-08-08T23:06:19.743Z,22.06
2017-08-08T23:06:48.156Z,22.01
2017-08-08T23:07:16.235Z,22.08
2017-08-08T23:07:44.316Z,22.12
2017-08-08T23:08:12.450Z,22.06
2017-08-08T23:08:40.637Z,22.01
2017-08-08T23:09:08.827Z,22.07
2017-08-08T23:09:36.920Z,21.94
2017-08-08T23:10:05.557Z,21.99
2017-08-08T23:10:33.644Z,21.83
2017-08-08T23:11:16.226Z,21.99
2017-08-08T23:11:44.009Z,22.01
2017-08-08T23:12:12.233Z,21.92
2017-08-08T23:12:40.320Z,22.01
2017-08-08T23:13:08.311Z,22
2017-08-08T23:13:36.462Z,22.01
2017-08-08T23:14:04.623Z,21.92
2017-08-08T23:14:32.787Z,21.97
2017-08-08T23:15:00.765Z,21.89
2017-08-08T23:15:28.841Z,22.07
2017-08-08T23:15:56.975Z,21.99
2017-08-08T23:16:25.058Z,22.01
2017-08-08T23:16:53.190Z,21.92
2017-08-08T23:17:21.396Z,22.01
2017-08-08T23:17:49.597Z,21.88
2017-08-08T23:18:17.757Z,21.96
2017-08-08T23:18:45.751Z,21.85
2017-08-08T23:19:13.921Z,21.99
2017-08-08T23:19:41.894Z,22.03
2017-08-08T23:20:09.875Z,21.85
2017-08-08T23:20:38.227Z,21.96
2017-08-08T23:21:06.369Z,21.97
2017-08-08T23:21:34.451Z,21.94
2017-08-08T23:22:02.450Z,21.99
2017-08-08T23:22:30.416Z,21.99
2017-08-08T23:22:58.421Z,22
2017-08-08T23:23:26.413Z,21.92
2017-08-08T23:23:54.583Z,21.99
2017-08-08T23:24:22.769Z,22
2017-08-08T23:24:50.927Z,22.01
2017-08-08T23:25:18.999Z,21.94
2017-08-08T23:25:47.075Z,22.01
2017-08-08T23:26:15.155Z,21.96
2017-08-08T23:26:43.160Z,21.99
2017-08-08T23:27:11.330Z,21.92
2017-08-08T23:27:39.526Z,21.94
2017-08-08T23:28:07.678Z,22.03
2017-08-08T23:28:35.885Z,22
2017-08-08T23:29:04.394Z,22.03
2017-08-08T23:29:32.497Z,21.88
2017-08-08T23:30:00.573Z,21.97
2017-08-08T23:30:28.596Z,22
2017-08-08T23:30:56.999Z,21.91
2017-08-08T23:31:25.228Z,22.01
2017-08-08T23:31:53.401Z,21.99
2017-08-08T23:32:21.496Z,22.01
2017-08-08T23:32:49.502Z,22.01
2017-08-08T23:33:17.571Z,22.04
2017-08-08T23:33:45.667Z,22.06
2017-08-08T23:34:13.878Z,22.12
2017-08-08T23:34:41.946Z,22.03
2017-08-08T23:35:10.059Z,22.01
2017-08-08T23:35:38.232Z,22.07
2017-08-08T23:36:06.341Z,22.06
2017-08-08T23:36:34.519Z,22.08
2017-08-08T23:37:02.609Z,22.01
2017-08-08T23:37:30.598Z,22.15
2017-08-08T23:37:58.480Z,22.1
2017-08-08T23:38:26.396Z,22.07
2017-08-08T23:38:54.556Z,22.1
2017-08-08T23:39:22.663Z,22.08
2017-08-08T23:39:50.932Z,22.18
2017-08-08T23:40:19.096Z,22.15
2017-08-08T23:40:47.093Z,22.19
2017-08-08T23:41:15.083Z,22.22
2017-08-08T23:41:43.159Z,22.25
2017-08-08T23:42:11.275Z,22.18
2017-08-08T23:42:39.363Z,22.22
2017-08-08T23:43:07.534Z,22.07
2017-08-08T23:43:50.105Z,22.16
2017-08-08T23:44:18.168Z,22.15
2017-08-08T23:44:46.386Z,22.18
2017-08-08T23:45:14.569Z,22.23
2017-08-08T23:45:42.564Z,22.21
2017-08-08T23:46:10.732Z,22.18
2017-08-08T23:46:40.051Z,22.21
2017-08-08T23:47:08.045Z,22.22
2017-08-08T23:47:36.023Z,22.23
2017-08-08T23:48:04.099Z,22.12
2017-08-08T23:48:32.164Z,22.12
2017-08-08T23:49:00.060Z,22.18
2017-08-08T23:49:28.053Z,22.23
2017-08-08T23:49:56.050Z,22.21
2017-08-08T23:50:24.245Z,22.19
2017-08-08T23:50:52.426Z,22.19
2017-08-08T23:51:20.607Z,22.19
2017-08-08T23:51:48.501Z,22.12
2017-08-08T23:52:16.691Z,22.23
2017-08-08T23:52:44.766Z,22.1
2017-08-08T23:53:12.560Z,22.21
2017-08-08T23:53:40.536Z,22.22
2017-08-08T23:54:08.419Z,22.18
2017-08-08T23:54:36.856Z,22.22
2017-08-08T23:55:05.002Z,22.25
2017-08-08T23:55:33.096Z,22.18
2017-08-08T23:56:01.415Z,22.19
2017-08-08T23:56:29.307Z,22.16
2017-08-08T23:56:57.311Z,22.25
2017-08-08T23:57:25.313Z,22.21
2017-08-08T23:57:53.369Z,22.16
2017-08-08T23:58:21.528Z,22.19
2017-08-08T23:58:49.605Z,22.1
2017-08-08T23:59:17.774Z,22.18
2017-08-08T23:59:45.840Z,22.18
